sensor_id;sensor_type;location;lat;lon;timestamp;pressure;altitude;pressure_sealevel;temperature;humidity
58698;BME280;44475;53.206;-6.106;2023-09-12T00:00:04;101357.47;;;25.51;53.82
58698;BME280;44475;53.206;-6.106;2023-09-12T00:02:38;101370.19;;;25.52;53.60
58698;BME280;44475;53.206;-6.106;2023-09-12T00:05:04;101361.94;;;25.52;53.48
58698;BME280;44475;53.206;-6.106;2023-09-12T00:07:31;101362.38;;;25.47;53.65
58698;BME280;44475;53.206;-6.106;2023-09-12T00:09:57;101364.81;;;25.50;53.78
58698;BME280;44475;53.206;-6.106;2023-09-12T00:12:24;101377.41;;;25.53;53.61
58698;BME280;44475;53.206;-6.106;2023-09-12T00:14:54;101368.44;;;25.51;53.84
58698;BME280;44475;53.206;-6.106;2023-09-12T00:17:21;101368.44;;;25.51;53.52
58698;BME280;44475;53.206;-6.106;2023-09-12T00:19:48;101371.19;;;25.51;53.36
58698;BME280;44475;53.206;-6.106;2023-09-12T00:22:14;101374.94;;;25.50;53.38
58698;BME280;44475;53.206;-6.106;2023-09-12T00:24:40;101373.06;;;25.50;53.36
58698;BME280;44475;53.206;-6.106;2023-09-12T00:27:07;101378.84;;;25.47;53.71
58698;BME280;44475;53.206;-6.106;2023-09-12T00:29:33;101380.41;;;25.50;53.56
58698;BME280;44475;53.206;-6.106;2023-09-12T00:32:00;101386.91;;;25.48;53.60
58698;BME280;44475;53.206;-6.106;2023-09-12T00:34:26;101387.63;;;25.51;53.45
58698;BME280;44475;53.206;-6.106;2023-09-12T00:36:52;101389.81;;;25.47;53.59
58698;BME280;44475;53.206;-6.106;2023-09-12T00:39:18;101402.66;;;25.46;53.71
58698;BME280;44475;53.206;-6.106;2023-09-12T00:41:45;101396.00;;;25.49;53.43
58698;BME280;44475;53.206;-6.106;2023-09-12T00:44:11;101399.91;;;25.46;53.42
58698;BME280;44475;53.206;-6.106;2023-09-12T00:46:39;101394.25;;;25.48;53.37
58698;BME280;44475;53.206;-6.106;2023-09-12T00:49:08;101409.84;;;25.47;53.56
58698;BME280;44475;53.206;-6.106;2023-09-12T00:51:35;101411.59;;;25.48;53.39
58698;BME280;44475;53.206;-6.106;2023-09-12T00:54:04;101402.22;;;25.51;53.23
58698;BME280;44475;53.206;-6.106;2023-09-12T00:56:30;101399.91;;;25.46;53.44
58698;BME280;44475;53.206;-6.106;2023-09-12T00:58:57;101380.69;;;25.36;52.94
58698;BME280;44475;53.206;-6.106;2023-09-12T01:01:24;101408.28;;;25.45;53.40
58698;BME280;44475;53.206;-6.106;2023-09-12T01:03:50;101409.16;;;25.45;53.14
58698;BME280;44475;53.206;-6.106;2023-09-12T01:06:20;101409.16;;;25.45;53.39
58698;BME280;44475;53.206;-6.106;2023-09-12T01:08:47;101415.78;;;25.43;53.37
58698;BME280;44475;53.206;-6.106;2023-09-12T01:11:14;101410.16;;;25.44;53.29
58698;BME280;44475;53.206;-6.106;2023-09-12T01:13:42;101411.59;;;25.48;53.38
58698;BME280;44475;53.206;-6.106;2023-09-12T01:16:08;101409.16;;;25.45;53.17
58698;BME280;44475;53.206;-6.106;2023-09-12T01:18:35;101412.59;;;25.47;53.04
58698;BME280;44475;53.206;-6.106;2023-09-12T01:29:34;101422.00;;;25.45;53.21
58698;BME280;44475;53.206;-6.106;2023-09-12T01:32:02;101429.34;;;25.44;53.06
58698;BME280;44475;53.206;-6.106;2023-09-12T01:34:29;101426.00;;;25.41;53.06
58698;BME280;44475;53.206;-6.106;2023-09-12T01:36:55;101429.50;;;25.43;53.05
58698;BME280;44475;53.206;-6.106;2023-09-12T01:39:22;101426.13;;;25.39;53.17
58698;BME280;44475;53.206;-6.106;2023-09-12T01:41:50;101430.22;;;25.45;53.02
58698;BME280;44475;53.206;-6.106;2023-09-12T01:44:19;101428.34;;;25.45;53.15
58698;BME280;44475;53.206;-6.106;2023-09-12T01:46:49;101435.72;;;25.45;53.18
58698;BME280;44475;53.206;-6.106;2023-09-12T01:49:18;101429.50;;;25.43;53.31
58698;BME280;44475;53.206;-6.106;2023-09-12T01:51:45;101431.81;;;25.47;52.98
58698;BME280;44475;53.206;-6.106;2023-09-12T01:54:12;101428.63;;;25.42;53.37
58698;BME280;44475;53.206;-6.106;2023-09-12T01:56:40;101429.75;;;25.40;53.25
58698;BME280;44475;53.206;-6.106;2023-09-12T01:59:07;101431.50;;;25.41;53.31
58698;BME280;44475;53.206;-6.106;2023-09-12T02:01:33;101437.25;;;25.37;53.12
58698;BME280;44475;53.206;-6.106;2023-09-12T02:04:00;101435.97;;;25.42;53.30
58698;BME280;44475;53.206;-6.106;2023-09-12T02:06:26;101431.50;;;25.41;53.07
58698;BME280;44475;53.206;-6.106;2023-09-12T02:08:52;101439.72;;;25.41;53.29
58698;BME280;44475;53.206;-6.106;2023-09-12T02:11:19;101435.09;;;25.41;53.21
58698;BME280;44475;53.206;-6.106;2023-09-12T02:13:45;101438.84;;;25.40;53.42
58698;BME280;44475;53.206;-6.106;2023-09-12T02:16:12;101439.59;;;25.42;53.25
58698;BME280;44475;53.206;-6.106;2023-09-12T02:18:38;101438.13;;;25.38;53.31
58698;BME280;44475;53.206;-6.106;2023-09-12T02:21:05;101437.09;;;25.39;53.11
58698;BME280;44475;53.206;-6.106;2023-09-12T02:23:31;101443.47;;;25.40;53.36
58698;BME280;44475;53.206;-6.106;2023-09-12T02:25:57;101439.84;;;25.39;53.21
58698;BME280;44475;53.206;-6.106;2023-09-12T02:28:23;101444.59;;;25.37;53.22
58698;BME280;44475;53.206;-6.106;2023-09-12T02:30:50;101446.06;;;25.41;53.01
58698;BME280;44475;53.206;-6.106;2023-09-12T02:33:17;101452.44;;;25.42;53.03
58698;BME280;44475;53.206;-6.106;2023-09-12T02:35:43;101446.06;;;25.41;53.04
58698;BME280;44475;53.206;-6.106;2023-09-12T02:38:09;101455.44;;;25.38;53.16
58698;BME280;44475;53.206;-6.106;2023-09-12T02:40:36;101460.78;;;25.40;53.20
58698;BME280;44475;53.206;-6.106;2023-09-12T02:43:02;101459.94;;;25.40;53.07
58698;BME280;44475;53.206;-6.106;2023-09-12T02:45:29;101456.06;;;25.42;53.07
58698;BME280;44475;53.206;-6.106;2023-09-12T02:47:56;101464.41;;;25.41;53.24
58698;BME280;44475;53.206;-6.106;2023-09-12T02:50:22;101466.41;;;25.38;53.04
58698;BME280;44475;53.206;-6.106;2023-09-12T02:52:48;101468.03;;;25.41;52.86
58698;BME280;44475;53.206;-6.106;2023-09-12T02:55:14;101461.81;;;25.39;53.15
58698;BME280;44475;53.206;-6.106;2023-09-12T02:57:41;101474.66;;;25.38;52.97
58698;BME280;44475;53.206;-6.106;2023-09-12T03:00:07;101470.75;;;25.41;53.12
58698;BME280;44475;53.206;-6.106;2023-09-12T03:02:35;101474.78;;;25.37;53.17
58698;BME280;44475;53.206;-6.106;2023-09-12T03:05:01;101463.66;;;25.38;53.19
58698;BME280;44475;53.206;-6.106;2023-09-12T03:07:29;101468.59;;;25.35;53.20
58698;BME280;44475;53.206;-6.106;2023-09-12T03:09:55;101470.91;;;25.40;53.20
58698;BME280;44475;53.206;-6.106;2023-09-12T03:12:22;101464.41;;;25.41;53.20
58698;BME280;44475;53.206;-6.106;2023-09-12T03:14:48;101474.78;;;25.37;53.17
58698;BME280;44475;53.206;-6.106;2023-09-12T03:17:14;101483.88;;;25.37;53.29
58698;BME280;44475;53.206;-6.106;2023-09-12T03:19:40;101485.75;;;25.37;53.00
58698;BME280;44475;53.206;-6.106;2023-09-12T03:22:07;101483.16;;;25.35;53.02
58698;BME280;44475;53.206;-6.106;2023-09-12T03:24:33;101494.13;;;25.35;53.11
58698;BME280;44475;53.206;-6.106;2023-09-12T03:26:59;101502.06;;;25.38;52.76
58698;BME280;44475;53.206;-6.106;2023-09-12T03:29:26;101501.38;;;25.36;53.00
58698;BME280;44475;53.206;-6.106;2023-09-12T03:31:52;101503.94;;;25.38;53.07
58698;BME280;44475;53.206;-6.106;2023-09-12T03:34:18;101493.53;;;25.32;53.14
58698;BME280;44475;53.206;-6.106;2023-09-12T03:36:45;101498.13;;;25.31;52.91
58698;BME280;44475;53.206;-6.106;2023-09-12T03:39:11;101501.75;;;25.32;53.01
58698;BME280;44475;53.206;-6.106;2023-09-12T03:41:39;101508.38;;;25.29;52.94
58698;BME280;44475;53.206;-6.106;2023-09-12T03:44:06;101501.38;;;25.36;52.76
58698;BME280;44475;53.206;-6.106;2023-09-12T03:46:32;101498.13;;;25.31;53.10
58698;BME280;44475;53.206;-6.106;2023-09-12T03:48:58;101504.09;;;25.36;53.10
58698;BME280;44475;53.206;-6.106;2023-09-12T03:51:25;101514.47;;;25.33;52.98
58698;BME280;44475;53.206;-6.106;2023-09-12T03:53:51;101505.38;;;25.32;52.92
58698;BME280;44475;53.206;-6.106;2023-09-12T03:56:18;101507.25;;;25.32;52.93
58698;BME280;44475;53.206;-6.106;2023-09-12T03:58:46;101506.09;;;25.34;52.75
58698;BME280;44475;53.206;-6.106;2023-09-12T04:01:13;101511.47;;;25.36;52.98
58698;BME280;44475;53.206;-6.106;2023-09-12T04:03:39;101505.69;;;25.39;52.90
58698;BME280;44475;53.206;-6.106;2023-09-12T04:06:06;101508.84;;;25.34;52.87
58698;BME280;44475;53.206;-6.106;2023-09-12T04:08:32;101507.25;;;25.32;52.93
58698;BME280;44475;53.206;-6.106;2023-09-12T04:10:58;101511.59;;;25.34;52.81
58698;BME280;44475;53.206;-6.106;2023-09-12T04:13:25;101513.47;;;25.34;52.73
58698;BME280;44475;53.206;-6.106;2023-09-12T04:15:51;101508.97;;;25.33;52.91
58698;BME280;44475;53.206;-6.106;2023-09-12T04:18:17;101507.25;;;25.32;52.74
58698;BME280;44475;53.206;-6.106;2023-09-12T04:20:43;101508.09;;;25.32;52.87
58698;BME280;44475;53.206;-6.106;2023-09-12T04:23:10;101500.88;;;25.31;52.67
58698;BME280;44475;53.206;-6.106;2023-09-12T04:25:36;101495.53;;;25.30;52.86
58698;BME280;44475;53.206;-6.106;2023-09-12T04:28:03;101495.53;;;25.30;52.86
58698;BME280;44475;53.206;-6.106;2023-09-12T04:30:30;101500.00;;;25.31;52.99
58698;BME280;44475;53.206;-6.106;2023-09-12T04:32:56;101504.63;;;25.30;52.98
58698;BME280;44475;53.206;-6.106;2023-09-12T04:35:23;101505.63;;;25.29;52.96
58698;BME280;44475;53.206;-6.106;2023-09-12T04:37:51;101498.41;;;25.28;52.54
58698;BME280;44475;53.206;-6.106;2023-09-12T04:40:17;101497.69;;;25.26;53.05
58698;BME280;44475;53.206;-6.106;2023-09-12T04:42:44;101499.75;;;25.34;52.58
58698;BME280;44475;53.206;-6.106;2023-09-12T04:45:10;101498.28;;;25.30;52.78
58698;BME280;44475;53.206;-6.106;2023-09-12T04:47:36;101503.75;;;25.30;52.80
58698;BME280;44475;53.206;-6.106;2023-09-12T04:50:03;101506.50;;;25.30;52.68
58698;BME280;44475;53.206;-6.106;2023-09-12T04:52:29;101502.88;;;25.29;52.54
58698;BME280;44475;53.206;-6.106;2023-09-12T04:54:56;101509.25;;;25.30;52.64
58698;BME280;44475;53.206;-6.106;2023-09-12T04:57:22;101506.63;;;25.28;52.84
58698;BME280;44475;53.206;-6.106;2023-09-12T04:59:48;101512.25;;;25.26;52.73
58698;BME280;44475;53.206;-6.106;2023-09-12T05:02:15;101508.78;;;25.24;52.72
58698;BME280;44475;53.206;-6.106;2023-09-12T05:04:41;101519.63;;;25.26;52.54
58698;BME280;44475;53.206;-6.106;2023-09-12T05:07:08;101505.03;;;25.25;52.86
58698;BME280;44475;53.206;-6.106;2023-09-12T05:09:34;101517.72;;;25.26;52.74
58698;BME280;44475;53.206;-6.106;2023-09-12T05:12:01;101514.16;;;25.26;52.59
58698;BME280;44475;53.206;-6.106;2023-09-12T05:14:27;101490.41;;;25.15;52.79
58698;BME280;44475;53.206;-6.106;2023-09-12T05:16:53;101516.16;;;25.24;52.68
58698;BME280;44475;53.206;-6.106;2023-09-12T05:19:20;101511.66;;;25.23;52.69
58698;BME280;44475;53.206;-6.106;2023-09-12T05:21:46;101516.16;;;25.24;52.96
58698;BME280;44475;53.206;-6.106;2023-09-12T05:24:12;101515.84;;;25.27;52.47
58698;BME280;44475;53.206;-6.106;2023-09-12T05:26:38;101526.25;;;25.23;52.60
58698;BME280;44475;53.206;-6.106;2023-09-12T05:29:05;101523.38;;;25.25;52.64
58698;BME280;44475;53.206;-6.106;2023-09-12T05:31:31;101503.72;;;25.08;52.78
58698;BME280;44475;53.206;-6.106;2023-09-12T05:33:58;101526.25;;;25.23;52.78
58698;BME280;44475;53.206;-6.106;2023-09-12T05:36:24;101526.13;;;25.25;52.66
58698;BME280;44475;53.206;-6.106;2023-09-12T05:38:51;101528.84;;;25.25;52.66
58698;BME280;44475;53.206;-6.106;2023-09-12T05:41:17;101541.69;;;25.24;52.89
58698;BME280;44475;53.206;-6.106;2023-09-12T05:43:43;101531.72;;;25.23;52.74
58698;BME280;44475;53.206;-6.106;2023-09-12T05:46:09;101530.84;;;25.23;52.79
58698;BME280;44475;53.206;-6.106;2023-09-12T05:48:36;101527.38;;;25.21;52.89
58698;BME280;44475;53.206;-6.106;2023-09-12T05:51:02;101542.69;;;25.23;52.71
58698;BME280;44475;53.206;-6.106;2023-09-12T05:53:29;101541.81;;;25.23;52.88
58698;BME280;44475;53.206;-6.106;2023-09-12T05:55:56;101549.06;;;25.24;52.77
58698;BME280;44475;53.206;-6.106;2023-09-12T05:58:23;101541.81;;;25.23;52.84
58698;BME280;44475;53.206;-6.106;2023-09-12T06:00:49;101556.66;;;25.20;52.94
58698;BME280;44475;53.206;-6.106;2023-09-12T06:03:16;101548.31;;;25.22;53.00
58698;BME280;44475;53.206;-6.106;2023-09-12T06:05:42;101559.28;;;25.22;52.81
58698;BME280;44475;53.206;-6.106;2023-09-12T06:08:08;101563.03;;;25.21;52.86
58698;BME280;44475;53.206;-6.106;2023-09-12T06:10:35;101562.91;;;25.22;52.74
58698;BME280;44475;53.206;-6.106;2023-09-12T06:13:01;101563.16;;;25.19;52.78
58698;BME280;44475;53.206;-6.106;2023-09-12T06:15:27;101562.63;;;25.25;52.76
58698;BME280;44475;53.206;-6.106;2023-09-12T06:17:54;101562.91;;;25.22;52.76
58698;BME280;44475;53.206;-6.106;2023-09-12T06:20:21;101575.59;;;25.23;52.72
58698;BME280;44475;53.206;-6.106;2023-09-12T06:22:48;101579.47;;;25.21;52.89
58698;BME280;44475;53.206;-6.106;2023-09-12T06:25:15;101582.09;;;25.22;52.62
58698;BME280;44475;53.206;-6.106;2023-09-12T06:27:41;101581.97;;;25.24;52.48
58698;BME280;44475;53.206;-6.106;2023-09-12T06:30:08;101588.44;;;25.23;52.93
58698;BME280;44475;53.206;-6.106;2023-09-12T06:32:34;101593.06;;;25.22;52.96
58698;BME280;44475;53.206;-6.106;2023-09-12T06:35:01;101595.56;;;25.25;53.52
58698;BME280;44475;53.206;-6.106;2023-09-12T06:37:27;101582.59;;;25.16;53.95
58698;BME280;44475;53.206;-6.106;2023-09-12T06:39:53;101595.94;;;25.21;53.70
58698;BME280;44475;53.206;-6.106;2023-09-12T06:42:19;101601.53;;;25.19;53.53
58698;BME280;44475;53.206;-6.106;2023-09-12T06:44:46;101600.53;;;25.20;53.59
58698;BME280;44475;53.206;-6.106;2023-09-12T06:47:12;101596.56;;;25.13;53.73
58698;BME280;44475;53.206;-6.106;2023-09-12T06:49:39;101597.53;;;25.23;53.51
58698;BME280;44475;53.206;-6.106;2023-09-12T06:52:05;101603.91;;;25.24;53.21
58698;BME280;44475;53.206;-6.106;2023-09-12T06:54:33;101599.28;;;25.24;53.30
58698;BME280;44475;53.206;-6.106;2023-09-12T06:56:59;101608.09;;;25.28;53.34
58698;BME280;44475;53.206;-6.106;2023-09-12T06:59:25;101609.97;;;25.27;53.00
58698;BME280;44475;53.206;-6.106;2023-09-12T07:01:52;101616.63;;;25.25;53.11
58698;BME280;44475;53.206;-6.106;2023-09-12T07:04:18;101626.44;;;25.27;52.90
58698;BME280;44475;53.206;-6.106;2023-09-12T07:06:44;101620.94;;;25.27;52.94
58698;BME280;44475;53.206;-6.106;2023-09-12T07:09:11;101623.56;;;25.29;52.91
58698;BME280;44475;53.206;-6.106;2023-09-12T07:11:41;101629.84;;;25.20;53.14
58698;BME280;44475;53.206;-6.106;2023-09-12T07:14:07;101631.19;;;25.25;52.86
58698;BME280;44475;53.206;-6.106;2023-09-12T07:16:34;101633.78;;;25.27;52.85
58698;BME280;44475;53.206;-6.106;2023-09-12T07:19:00;101635.94;;;25.23;52.74
58698;BME280;44475;53.206;-6.106;2023-09-12T07:21:27;101648.03;;;25.21;52.77
58698;BME280;44475;53.206;-6.106;2023-09-12T07:23:54;101640.94;;;25.18;52.82
58698;BME280;44475;53.206;-6.106;2023-09-12T07:26:20;101645.28;;;25.21;52.70
58698;BME280;44475;53.206;-6.106;2023-09-12T07:28:46;101643.41;;;25.21;52.88
58698;BME280;44475;53.206;-6.106;2023-09-12T07:31:13;101652.97;;;25.27;52.91
58698;BME280;44475;53.206;-6.106;2023-09-12T07:33:40;101654.84;;;25.26;52.58
58698;BME280;44475;53.206;-6.106;2023-09-12T07:36:07;101652.41;;;25.23;52.67
58698;BME280;44475;53.206;-6.106;2023-09-12T07:38:33;101657.75;;;25.25;52.38
58698;BME280;44475;53.206;-6.106;2023-09-12T07:41:01;101663.38;;;25.23;52.40
58698;BME280;44475;53.206;-6.106;2023-09-12T07:43:29;101658.88;;;25.22;52.18
58698;BME280;44475;53.206;-6.106;2023-09-12T07:45:56;101661.22;;;25.27;52.13
58698;BME280;44475;53.206;-6.106;2023-09-12T07:48:23;101662.09;;;25.27;52.16
58698;BME280;44475;53.206;-6.106;2023-09-12T07:50:50;101659.25;;;25.17;52.42
58698;BME280;44475;53.206;-6.106;2023-09-12T07:53:17;101664.13;;;25.25;52.16
58698;BME280;44475;53.206;-6.106;2023-09-12T07:55:44;101670.19;;;25.29;51.81
58698;BME280;44475;53.206;-6.106;2023-09-12T07:58:15;101655.00;;;25.25;51.85
58698;BME280;44475;53.206;-6.106;2023-09-12T08:00:44;101667.34;;;25.19;51.87
58698;BME280;44475;53.206;-6.106;2023-09-12T08:03:10;101669.72;;;25.24;51.86
58698;BME280;44475;53.206;-6.106;2023-09-12T08:05:36;101660.88;;;25.20;51.89
58698;BME280;44475;53.206;-6.106;2023-09-12T08:08:04;101657.75;;;25.25;51.73
58698;BME280;44475;53.206;-6.106;2023-09-12T08:10:30;101678.06;;;25.22;51.61
58698;BME280;44475;53.206;-6.106;2023-09-12T08:12:57;101674.06;;;25.26;51.52
58698;BME280;44475;53.206;-6.106;2023-09-12T08:15:23;101671.59;;;25.23;51.81
58698;BME280;44475;53.206;-6.106;2023-09-12T08:17:50;101683.56;;;25.22;51.78
58698;BME280;44475;53.206;-6.106;2023-09-12T08:20:19;101675.34;;;25.22;51.79
58698;BME280;44475;53.206;-6.106;2023-09-12T08:22:45;101679.53;;;25.26;51.52
58698;BME280;44475;53.206;-6.106;2023-09-12T08:25:11;101679.06;;;25.21;51.66
58698;BME280;44475;53.206;-6.106;2023-09-12T08:27:39;101657.75;;;25.13;51.47
58698;BME280;44475;53.206;-6.106;2023-09-12T08:30:06;101690.66;;;25.25;51.59
58698;BME280;44475;53.206;-6.106;2023-09-12T08:32:32;101688.78;;;25.25;51.64
58698;BME280;44475;53.206;-6.106;2023-09-12T08:34:59;101686.78;;;25.27;51.46
58698;BME280;44475;53.206;-6.106;2023-09-12T08:37:25;101693.66;;;25.22;51.54
58698;BME280;44475;53.206;-6.106;2023-09-12T08:39:51;101698.91;;;25.25;51.62
58698;BME280;44475;53.206;-6.106;2023-09-12T08:42:23;101694.41;;;25.24;51.41
58698;BME280;44475;53.206;-6.106;2023-09-12T08:44:49;101703.09;;;25.29;51.43
58698;BME280;44475;53.206;-6.106;2023-09-12T08:47:16;101702.34;;;25.27;51.65
58698;BME280;44475;53.206;-6.106;2023-09-12T08:49:44;101700.00;;;25.22;51.57
58698;BME280;44475;53.206;-6.106;2023-09-12T08:52:10;101702.63;;;25.24;51.75
58698;BME280;44475;53.206;-6.106;2023-09-12T08:54:37;101708.38;;;25.21;51.54
58698;BME280;44475;53.206;-6.106;2023-09-12T08:57:04;101705.25;;;25.25;51.66
58698;BME280;44475;53.206;-6.106;2023-09-12T08:59:33;101711.31;;;25.29;51.16
58698;BME280;44475;53.206;-6.106;2023-09-12T09:02:00;101719.69;;;25.27;51.58
58698;BME280;44475;53.206;-6.106;2023-09-12T09:04:33;101716.34;;;25.24;51.42
58698;BME280;44475;53.206;-6.106;2023-09-12T09:07:01;101715.72;;;25.20;51.51
58698;BME280;44475;53.206;-6.106;2023-09-12T09:09:29;101722.19;;;25.07;51.68
58698;BME280;44475;53.206;-6.106;2023-09-12T09:11:56;101724.44;;;25.14;51.80
58698;BME280;44475;53.206;-6.106;2023-09-12T09:14:22;101722.81;;;25.23;51.67
58698;BME280;44475;53.206;-6.106;2023-09-12T09:16:49;101727.31;;;25.24;51.46
58698;BME280;44475;53.206;-6.106;2023-09-12T09:19:16;101728.44;;;25.21;51.51
58698;BME280;44475;53.206;-6.106;2023-09-12T09:21:44;101729.19;;;25.23;51.51
58698;BME280;44475;53.206;-6.106;2023-09-12T09:24:13;101733.78;;;25.23;51.50
58698;BME280;44475;53.206;-6.106;2023-09-12T09:29:18;101741.28;;;25.21;51.38
58698;BME280;44475;53.206;-6.106;2023-09-12T09:31:46;101739.03;;;25.14;51.62
58698;BME280;44475;53.206;-6.106;2023-09-12T09:34:20;101729.56;;;25.18;51.45
58698;BME280;44475;53.206;-6.106;2023-09-12T09:39:16;101747.38;;;25.24;51.31
58698;BME280;44475;53.206;-6.106;2023-09-12T09:41:46;101744.38;;;25.16;51.49
58698;BME280;44475;53.206;-6.106;2023-09-12T09:44:13;101734.41;;;25.26;51.28
58698;BME280;44475;53.206;-6.106;2023-09-12T09:46:43;101748.50;;;25.22;51.57
58698;BME280;44475;53.206;-6.106;2023-09-12T09:49:19;101752.59;;;25.27;51.45
58698;BME280;44475;53.206;-6.106;2023-09-12T09:51:45;101742.50;;;25.28;51.16
58698;BME280;44475;53.206;-6.106;2023-09-12T09:54:12;101755.22;;;25.29;51.43
58698;BME280;44475;53.206;-6.106;2023-09-12T09:56:46;101747.09;;;25.27;51.39
58698;BME280;44475;53.206;-6.106;2023-09-12T09:59:22;101751.13;;;25.23;51.23
58698;BME280;44475;53.206;-6.106;2023-09-12T10:01:57;101750.50;;;25.20;51.55
58698;BME280;44475;53.206;-6.106;2023-09-12T10:04:27;101750.84;;;25.26;51.58
58698;BME280;44475;53.206;-6.106;2023-09-12T10:06:56;101751.72;;;25.27;51.38
58698;BME280;44475;53.206;-6.106;2023-09-12T10:09:26;101756.84;;;25.32;51.26
58698;BME280;44475;53.206;-6.106;2023-09-12T10:11:53;101755.22;;;25.29;51.19
58698;BME280;44475;53.206;-6.106;2023-09-12T10:14:21;101755.22;;;25.29;51.29
58698;BME280;44475;53.206;-6.106;2023-09-12T10:16:49;101757.22;;;25.27;51.70
58698;BME280;44475;53.206;-6.106;2023-09-12T10:19:23;101765.44;;;25.27;51.70
58698;BME280;44475;53.206;-6.106;2023-09-12T10:24:28;101753.34;;;25.30;51.47
58698;BME280;44475;53.206;-6.106;2023-09-12T10:26:55;101757.38;;;25.25;51.79
58698;BME280;44475;53.206;-6.106;2023-09-12T10:29:23;101757.50;;;25.24;51.62
58698;BME280;44475;53.206;-6.106;2023-09-12T10:31:49;101769.22;;;25.26;51.68
58698;BME280;44475;53.206;-6.106;2023-09-12T10:34:16;101762.97;;;25.24;51.73
58698;BME280;44475;53.206;-6.106;2023-09-12T10:36:45;101764.56;;;25.26;51.59
58698;BME280;44475;53.206;-6.106;2023-09-12T10:39:14;101772.94;;;25.25;51.78
58698;BME280;44475;53.206;-6.106;2023-09-12T10:41:41;101774.94;;;25.23;51.87
58698;BME280;44475;53.206;-6.106;2023-09-12T10:44:10;101768.56;;;25.22;51.72
58698;BME280;44475;53.206;-6.106;2023-09-12T10:46:38;101771.31;;;25.22;51.56
58698;BME280;44475;53.206;-6.106;2023-09-12T10:49:09;101780.53;;;25.21;51.55
58698;BME280;44475;53.206;-6.106;2023-09-12T10:51:44;101775.53;;;25.26;51.40
58698;BME280;44475;53.206;-6.106;2023-09-12T10:54:16;101776.16;;;25.30;51.44
58698;BME280;44475;53.206;-6.106;2023-09-12T10:57:03;101769.22;;;25.26;51.49
58698;BME280;44475;53.206;-6.106;2023-09-12T10:59:29;101777.28;;;25.27;51.56
58698;BME280;44475;53.206;-6.106;2023-09-12T11:02:27;101777.28;;;25.27;51.42
58698;BME280;44475;53.206;-6.106;2023-09-12T11:04:57;101780.91;;;25.28;51.28
58698;BME280;44475;53.206;-6.106;2023-09-12T11:07:33;101777.44;;;25.26;51.33
58698;BME280;44475;53.206;-6.106;2023-09-12T11:12:42;101786.50;;;25.26;51.51
58698;BME280;44475;53.206;-6.106;2023-09-12T11:15:09;101786.00;;;25.33;51.41
58698;BME280;44475;53.206;-6.106;2023-09-12T11:17:46;101796.22;;;25.31;51.32
58698;BME280;44475;53.206;-6.106;2023-09-12T11:20:14;101783.53;;;25.30;51.24
58698;BME280;44475;53.206;-6.106;2023-09-12T11:22:47;101792.00;;;25.26;51.34
58698;BME280;44475;53.206;-6.106;2023-09-12T11:30:21;101786.00;;;25.33;51.13
58698;BME280;44475;53.206;-6.106;2023-09-12T11:32:50;101780.66;;;25.31;51.51
58698;BME280;44475;53.206;-6.106;2023-09-12T11:35:21;101783.91;;;25.36;51.44
58698;BME280;44475;53.206;-6.106;2023-09-12T11:40:25;101782.25;;;25.45;51.72
58698;BME280;44475;53.206;-6.106;2023-09-12T11:42:52;101783.47;;;25.53;51.56
58698;BME280;44475;53.206;-6.106;2023-09-12T11:45:20;101790.47;;;25.57;51.39
58698;BME280;44475;53.206;-6.106;2023-09-12T11:47:47;101789.72;;;25.55;51.38
58698;BME280;44475;53.206;-6.106;2023-09-12T11:50:34;101796.31;;;25.52;51.35
58698;BME280;44475;53.206;-6.106;2023-09-12T11:53:07;101787.56;;;25.58;51.33
58698;BME280;44475;53.206;-6.106;2023-09-12T11:55:48;101788.19;;;25.62;51.13
58698;BME280;44475;53.206;-6.106;2023-09-12T11:58:18;101791.13;;;25.71;50.89
58698;BME280;44475;53.206;-6.106;2023-09-12T12:00:53;101792.88;;;25.72;50.99
58698;BME280;44475;53.206;-6.106;2023-09-12T12:03:24;101801.00;;;25.73;50.89
58698;BME280;44475;53.206;-6.106;2023-09-12T12:05:52;101795.75;;;25.70;50.72
58698;BME280;44475;53.206;-6.106;2023-09-12T12:08:19;101789.69;;;25.66;50.93
58698;BME280;44475;53.206;-6.106;2023-09-12T12:10:53;101790.91;;;25.62;51.32
58698;BME280;44475;53.206;-6.106;2023-09-12T12:13:21;101794.66;;;25.61;51.26
58698;BME280;44475;53.206;-6.106;2023-09-12T12:15:47;101799.84;;;25.31;51.11
58698;BME280;44475;53.206;-6.106;2023-09-12T12:18:14;101803.81;;;25.50;50.38
58698;BME280;44475;53.206;-6.106;2023-09-12T12:20:41;101796.03;;;25.67;50.21
58698;BME280;44475;53.206;-6.106;2023-09-12T12:23:07;101803.38;;;25.78;49.73
58698;BME280;44475;53.206;-6.106;2023-09-12T12:25:34;101800.84;;;25.86;49.80
58698;BME280;44475;53.206;-6.106;2023-09-12T12:28:01;101802.56;;;25.87;50.04
58698;BME280;44475;53.206;-6.106;2023-09-12T12:30:31;101805.94;;;25.91;49.65
58698;BME280;44475;53.206;-6.106;2023-09-12T12:33:01;101807.69;;;25.92;49.85
58698;BME280;44475;53.206;-6.106;2023-09-12T12:35:29;101809.31;;;25.95;49.46
58698;BME280;44475;53.206;-6.106;2023-09-12T12:37:55;101825.16;;;25.91;49.59
58698;BME280;44475;53.206;-6.106;2023-09-12T12:40:23;101812.19;;;25.93;49.40
58698;BME280;44475;53.206;-6.106;2023-09-12T12:42:49;101814.06;;;25.93;49.52
58698;BME280;44475;53.206;-6.106;2023-09-12T12:45:19;101813.19;;;25.92;49.63
58698;BME280;44475;53.206;-6.106;2023-09-12T12:47:50;101815.06;;;25.92;49.12
58698;BME280;44475;53.206;-6.106;2023-09-12T12:50:17;101821.53;;;25.91;49.27
58698;BME280;44475;53.206;-6.106;2023-09-12T12:52:47;101819.66;;;25.91;49.31
58698;BME280;44475;53.206;-6.106;2023-09-12T12:55:14;101830.66;;;25.91;49.30
58698;BME280;44475;53.206;-6.106;2023-09-12T12:57:43;101824.28;;;25.91;49.41
58698;BME280;44475;53.206;-6.106;2023-09-12T13:00:14;101819.66;;;25.91;49.30
58698;BME280;44475;53.206;-6.106;2023-09-12T13:02:43;101825.16;;;25.91;49.23
58698;BME280;44475;53.206;-6.106;2023-09-12T13:05:26;101823.91;;;25.84;49.64
58698;BME280;44475;53.206;-6.106;2023-09-12T13:07:53;101830.06;;;25.76;49.79